sensor_id;sensor_type;location;lat;lon;timestamp;pressure;altitude;pressure_sealevel;temperature
12918;BMP180;6526;54.312;13.092;2023-04-24T00:00:29;100760.00;;;13.30
12918;BMP180;6526;54.312;13.092;2023-04-24T00:02:55;100761.00;;;13.30
12918;BMP180;6526;54.312;13.092;2023-04-24T00:05:23;100759.00;;;13.30
12918;BMP180;6526;54.312;13.092;2023-04-24T00:07:49;100751.00;;;13.30
12918;BMP180;6526;54.312;13.092;2023-04-24T00:10:18;100749.00;;;13.30
12918;BMP180;6526;54.312;13.092;2023-04-24T00:12:44;100750.00;;;13.40
12918;BMP180;6526;54.312;13.092;2023-04-24T00:15:10;100740.00;;;13.40
12918;BMP180;6526;54.312;13.092;2023-04-24T00:17:37;100752.00;;;13.40
12918;BMP180;6526;54.312;13.092;2023-04-24T00:20:04;100739.00;;;13.50
12918;BMP180;6526;54.312;13.092;2023-04-24T00:22:30;100734.00;;;13.50
12918;BMP180;6526;54.312;13.092;2023-04-24T00:24:57;100736.00;;;13.50
12918;BMP180;6526;54.312;13.092;2023-04-24T00:27:23;100725.00;;;13.40
12918;BMP180;6526;54.312;13.092;2023-04-24T00:29:50;100717.00;;;13.40
12918;BMP180;6526;54.312;13.092;2023-04-24T00:32:16;100714.00;;;13.40
12918;BMP180;6526;54.312;13.092;2023-04-24T00:34:43;100716.00;;;13.40
12918;BMP180;6526;54.312;13.092;2023-04-24T00:37:09;100701.00;;;13.40
12918;BMP180;6526;54.312;13.092;2023-04-24T00:39:35;100698.00;;;13.40
12918;BMP180;6526;54.312;13.092;2023-04-24T00:42:01;100689.00;;;13.50
12918;BMP180;6526;54.312;13.092;2023-04-24T00:44:28;100681.00;;;13.40
12918;BMP180;6526;54.312;13.092;2023-04-24T00:46:55;100691.00;;;13.40
12918;BMP180;6526;54.312;13.092;2023-04-24T00:49:24;100689.00;;;13.40
12918;BMP180;6526;54.312;13.092;2023-04-24T00:51:50;100678.00;;;13.40
12918;BMP180;6526;54.312;13.092;2023-04-24T00:54:17;100686.00;;;13.30
12918;BMP180;6526;54.312;13.092;2023-04-24T00:56:44;100681.00;;;13.40
12918;BMP180;6526;54.312;13.092;2023-04-24T00:59:12;100671.00;;;13.30
12918;BMP180;6526;54.312;13.092;2023-04-24T01:01:39;100679.00;;;13.30
12918;BMP180;6526;54.312;13.092;2023-04-24T01:04:09;100663.00;;;13.30
12918;BMP180;6526;54.312;13.092;2023-04-24T01:06:39;100662.00;;;13.40
12918;BMP180;6526;54.312;13.092;2023-04-24T01:09:06;100659.00;;;13.40
12918;BMP180;6526;54.312;13.092;2023-04-24T01:11:36;100657.00;;;13.40
12918;BMP180;6526;54.312;13.092;2023-04-24T01:14:02;100657.00;;;13.50
12918;BMP180;6526;54.312;13.092;2023-04-24T01:16:29;100654.00;;;13.50
12918;BMP180;6526;54.312;13.092;2023-04-24T01:18:55;100651.00;;;13.40
12918;BMP180;6526;54.312;13.092;2023-04-24T01:21:21;100640.00;;;13.30
12918;BMP180;6526;54.312;13.092;2023-04-24T01:23:49;100645.00;;;13.40
12918;BMP180;6526;54.312;13.092;2023-04-24T01:26:17;100641.00;;;13.30
12918;BMP180;6526;54.312;13.092;2023-04-24T01:28:46;100636.00;;;13.30
12918;BMP180;6526;54.312;13.092;2023-04-24T01:31:12;100644.00;;;13.30
12918;BMP180;6526;54.312;13.092;2023-04-24T01:33:38;100631.00;;;13.40
12918;BMP180;6526;54.312;13.092;2023-04-24T01:36:04;100625.00;;;13.40
12918;BMP180;6526;54.312;13.092;2023-04-24T01:38:30;100638.00;;;13.40
12918;BMP180;6526;54.312;13.092;2023-04-24T01:40:56;100630.00;;;13.30
12918;BMP180;6526;54.312;13.092;2023-04-24T01:43:22;100619.00;;;13.30
12918;BMP180;6526;54.312;13.092;2023-04-24T01:45:49;100623.00;;;13.30
12918;BMP180;6526;54.312;13.092;2023-04-24T01:48:15;100608.00;;;13.30
12918;BMP180;6526;54.312;13.092;2023-04-24T01:50:41;100606.00;;;13.40
12918;BMP180;6526;54.312;13.092;2023-04-24T01:53:07;100603.00;;;13.40
12918;BMP180;6526;54.312;13.092;2023-04-24T01:55:33;100600.00;;;13.30
12918;BMP180;6526;54.312;13.092;2023-04-24T01:58:00;100605.00;;;13.30
12918;BMP180;6526;54.312;13.092;2023-04-24T02:00:26;100603.00;;;13.30
12918;BMP180;6526;54.312;13.092;2023-04-24T02:02:52;100592.00;;;13.30
12918;BMP180;6526;54.312;13.092;2023-04-24T02:05:19;100587.00;;;13.40
12918;BMP180;6526;54.312;13.092;2023-04-24T02:07:45;100588.00;;;13.40
12918;BMP180;6526;54.312;13.092;2023-04-24T02:10:11;100568.00;;;13.40
12918;BMP180;6526;54.312;13.092;2023-04-24T02:12:37;100588.00;;;13.50
12918;BMP180;6526;54.312;13.092;2023-04-24T02:15:04;100574.00;;;13.50
12918;BMP180;6526;54.312;13.092;2023-04-24T02:17:31;100579.00;;;13.60
12918;BMP180;6526;54.312;13.092;2023-04-24T02:19:57;100583.00;;;13.50
12918;BMP180;6526;54.312;13.092;2023-04-24T02:22:23;100588.00;;;13.50
12918;BMP180;6526;54.312;13.092;2023-04-24T02:24:49;100575.00;;;13.50
12918;BMP180;6526;54.312;13.092;2023-04-24T02:27:15;100567.00;;;13.50
12918;BMP180;6526;54.312;13.092;2023-04-24T02:29:41;100577.00;;;13.50
12918;BMP180;6526;54.312;13.092;2023-04-24T02:32:07;100567.00;;;13.40
12918;BMP180;6526;54.312;13.092;2023-04-24T02:34:37;100569.00;;;13.50
12918;BMP180;6526;54.312;13.092;2023-04-24T02:37:03;100560.00;;;13.50
12918;BMP180;6526;54.312;13.092;2023-04-24T02:39:29;100567.00;;;13.60
12918;BMP180;6526;54.312;13.092;2023-04-24T02:41:55;100551.00;;;13.60
12918;BMP180;6526;54.312;13.092;2023-04-24T02:44:21;100547.00;;;13.60
12918;BMP180;6526;54.312;13.092;2023-04-24T02:46:48;100552.00;;;13.60
12918;BMP180;6526;54.312;13.092;2023-04-24T02:49:14;100547.00;;;13.60
12918;BMP180;6526;54.312;13.092;2023-04-24T02:51:41;100530.00;;;13.60
12918;BMP180;6526;54.312;13.092;2023-04-24T02:54:08;100538.00;;;13.70
12918;BMP180;6526;54.312;13.092;2023-04-24T02:56:35;100530.00;;;13.70
12918;BMP180;6526;54.312;13.092;2023-04-24T02:59:01;100541.00;;;13.70
12918;BMP180;6526;54.312;13.092;2023-04-24T03:01:27;100544.00;;;13.70
12918;BMP180;6526;54.312;13.092;2023-04-24T03:03:53;100539.00;;;13.70
12918;BMP180;6526;54.312;13.092;2023-04-24T03:06:19;100551.00;;;13.70
12918;BMP180;6526;54.312;13.092;2023-04-24T03:08:46;100545.00;;;13.70
12918;BMP180;6526;54.312;13.092;2023-04-24T03:11:12;100537.00;;;13.70
12918;BMP180;6526;54.312;13.092;2023-04-24T03:13:38;100532.00;;;13.60
12918;BMP180;6526;54.312;13.092;2023-04-24T03:16:04;100534.00;;;13.60
12918;BMP180;6526;54.312;13.092;2023-04-24T03:18:31;100525.00;;;13.60
12918;BMP180;6526;54.312;13.092;2023-04-24T03:20:57;100533.00;;;13.60
12918;BMP180;6526;54.312;13.092;2023-04-24T03:23:23;100533.00;;;13.60
12918;BMP180;6526;54.312;13.092;2023-04-24T03:25:49;100526.00;;;13.60
12918;BMP180;6526;54.312;13.092;2023-04-24T03:28:15;100518.00;;;13.60
12918;BMP180;6526;54.312;13.092;2023-04-24T03:30:41;100518.00;;;13.70
12918;BMP180;6526;54.312;13.092;2023-04-24T03:33:07;100515.00;;;13.70
12918;BMP180;6526;54.312;13.092;2023-04-24T03:35:33;100507.00;;;13.70
12918;BMP180;6526;54.312;13.092;2023-04-24T03:38:00;100496.00;;;13.80
12918;BMP180;6526;54.312;13.092;2023-04-24T03:40:26;100499.00;;;13.70
12918;BMP180;6526;54.312;13.092;2023-04-24T03:42:52;100495.00;;;13.80
12918;BMP180;6526;54.312;13.092;2023-04-24T03:45:18;100489.00;;;13.80
12918;BMP180;6526;54.312;13.092;2023-04-24T03:47:44;100488.00;;;13.70
12918;BMP180;6526;54.312;13.092;2023-04-24T03:50:10;100487.00;;;13.70
12918;BMP180;6526;54.312;13.092;2023-04-24T03:52:36;100481.00;;;13.60
12918;BMP180;6526;54.312;13.092;2023-04-24T03:55:02;100476.00;;;13.60
12918;BMP180;6526;54.312;13.092;2023-04-24T03:57:28;100476.00;;;13.60
12918;BMP180;6526;54.312;13.092;2023-04-24T03:59:54;100481.00;;;13.60
12918;BMP180;6526;54.312;13.092;2023-04-24T04:02:21;100471.00;;;13.60
12918;BMP180;6526;54.312;13.092;2023-04-24T04:04:47;100481.00;;;13.60
12918;BMP180;6526;54.312;13.092;2023-04-24T04:07:13;100497.00;;;13.50
12918;BMP180;6526;54.312;13.092;2023-04-24T04:09:40;100493.00;;;13.50
12918;BMP180;6526;54.312;13.092;2023-04-24T04:12:06;100492.00;;;13.40
12918;BMP180;6526;54.312;13.092;2023-04-24T04:14:32;100490.00;;;13.60
12918;BMP180;6526;54.312;13.092;2023-04-24T04:16:58;100500.00;;;13.50
12918;BMP180;6526;54.312;13.092;2023-04-24T04:19:24;100506.00;;;13.50
12918;BMP180;6526;54.312;13.092;2023-04-24T04:21:50;100504.00;;;13.40
12918;BMP180;6526;54.312;13.092;2023-04-24T04:24:19;100487.00;;;13.50
12918;BMP180;6526;54.312;13.092;2023-04-24T04:26:46;100472.00;;;13.60
12918;BMP180;6526;54.312;13.092;2023-04-24T04:29:13;100486.00;;;13.60
12918;BMP180;6526;54.312;13.092;2023-04-24T04:31:39;100489.00;;;13.60
12918;BMP180;6526;54.312;13.092;2023-04-24T04:34:05;100478.00;;;13.60
12918;BMP180;6526;54.312;13.092;2023-04-24T04:36:33;100478.00;;;13.70
12918;BMP180;6526;54.312;13.092;2023-04-24T04:39:02;100487.00;;;13.70
12918;BMP180;6526;54.312;13.092;2023-04-24T04:41:29;100477.00;;;13.80
12918;BMP180;6526;54.312;13.092;2023-04-24T04:43:56;100492.00;;;13.80
12918;BMP180;6526;54.312;13.092;2023-04-24T04:46:24;100497.00;;;13.80
12918;BMP180;6526;54.312;13.092;2023-04-24T04:48:52;100485.00;;;13.90
12918;BMP180;6526;54.312;13.092;2023-04-24T04:51:18;100491.00;;;13.90
12918;BMP180;6526;54.312;13.092;2023-04-24T04:53:44;100494.00;;;13.90
12918;BMP180;6526;54.312;13.092;2023-04-24T04:56:11;100492.00;;;13.80
12918;BMP180;6526;54.312;13.092;2023-04-24T04:58:37;100505.00;;;13.80
12918;BMP180;6526;54.312;13.092;2023-04-24T05:01:03;100502.00;;;13.80
12918;BMP180;6526;54.312;13.092;2023-04-24T05:03:29;100489.00;;;13.90
12918;BMP180;6526;54.312;13.092;2023-04-24T05:05:55;100478.00;;;13.90
12918;BMP180;6526;54.312;13.092;2023-04-24T05:08:21;100491.00;;;13.90
12918;BMP180;6526;54.312;13.092;2023-04-24T05:10:47;100513.00;;;13.80
12918;BMP180;6526;54.312;13.092;2023-04-24T05:13:13;100507.00;;;13.80
12918;BMP180;6526;54.312;13.092;2023-04-24T05:15:39;100499.00;;;13.80
12918;BMP180;6526;54.312;13.092;2023-04-24T05:18:05;100509.00;;;13.80
12918;BMP180;6526;54.312;13.092;2023-04-24T05:20:31;100509.00;;;13.80
12918;BMP180;6526;54.312;13.092;2023-04-24T05:22:57;100505.00;;;13.80
12918;BMP180;6526;54.312;13.092;2023-04-24T05:25:23;100504.00;;;13.70
12918;BMP180;6526;54.312;13.092;2023-04-24T05:27:49;100502.00;;;13.80
12918;BMP180;6526;54.312;13.092;2023-04-24T05:30:15;100511.00;;;13.80
12918;BMP180;6526;54.312;13.092;2023-04-24T05:32:41;100508.00;;;13.90
12918;BMP180;6526;54.312;13.092;2023-04-24T05:35:08;100501.00;;;13.90
12918;BMP180;6526;54.312;13.092;2023-04-24T05:37:34;100465.00;;;13.90
12918;BMP180;6526;54.312;13.092;2023-04-24T05:40:00;100501.00;;;13.90
12918;BMP180;6526;54.312;13.092;2023-04-24T05:42:26;100500.00;;;13.90
12918;BMP180;6526;54.312;13.092;2023-04-24T05:44:52;100494.00;;;13.90
12918;BMP180;6526;54.312;13.092;2023-04-24T05:47:19;100492.00;;;13.90
12918;BMP180;6526;54.312;13.092;2023-04-24T05:49:47;100497.00;;;13.80
12918;BMP180;6526;54.312;13.092;2023-04-24T05:52:13;100489.00;;;13.90
12918;BMP180;6526;54.312;13.092;2023-04-24T05:54:39;100487.00;;;13.90
12918;BMP180;6526;54.312;13.092;2023-04-24T05:57:05;100485.00;;;13.90
12918;BMP180;6526;54.312;13.092;2023-04-24T05:59:37;100489.00;;;13.90
12918;BMP180;6526;54.312;13.092;2023-04-24T06:02:04;100487.00;;;13.90
12918;BMP180;6526;54.312;13.092;2023-04-24T06:04:31;100477.00;;;14.00
12918;BMP180;6526;54.312;13.092;2023-04-24T06:06:57;100489.00;;;14.00
12918;BMP180;6526;54.312;13.092;2023-04-24T06:09:23;100487.00;;;13.90
12918;BMP180;6526;54.312;13.092;2023-04-24T06:11:50;100493.00;;;14.00
12918;BMP180;6526;54.312;13.092;2023-04-24T06:14:19;100476.00;;;14.00
12918;BMP180;6526;54.312;13.092;2023-04-24T06:16:45;100472.00;;;14.10
12918;BMP180;6526;54.312;13.092;2023-04-24T06:19:11;100477.00;;;14.10
12918;BMP180;6526;54.312;13.092;2023-04-24T06:21:37;100484.00;;;14.20
12918;BMP180;6526;54.312;13.092;2023-04-24T06:24:03;100490.00;;;14.20
12918;BMP180;6526;54.312;13.092;2023-04-24T06:26:30;100490.00;;;14.20
12918;BMP180;6526;54.312;13.092;2023-04-24T06:28:56;100498.00;;;14.10
12918;BMP180;6526;54.312;13.092;2023-04-24T06:31:24;100502.00;;;14.10
12918;BMP180;6526;54.312;13.092;2023-04-24T06:33:50;100499.00;;;14.20
12918;BMP180;6526;54.312;13.092;2023-04-24T06:36:16;100498.00;;;14.20
12918;BMP180;6526;54.312;13.092;2023-04-24T06:38:42;100489.00;;;14.20
12918;BMP180;6526;54.312;13.092;2023-04-24T06:41:09;100490.00;;;14.20
12918;BMP180;6526;54.312;13.092;2023-04-24T06:43:35;100496.00;;;14.20
12918;BMP180;6526;54.312;13.092;2023-04-24T06:46:01;100497.00;;;14.30
12918;BMP180;6526;54.312;13.092;2023-04-24T06:48:29;100495.00;;;14.40
12918;BMP180;6526;54.312;13.092;2023-04-24T06:50:55;100505.00;;;14.40
12918;BMP180;6526;54.312;13.092;2023-04-24T06:53:21;100504.00;;;14.40
12918;BMP180;6526;54.312;13.092;2023-04-24T06:55:47;100489.00;;;14.50
12918;BMP180;6526;54.312;13.092;2023-04-24T06:58:14;100482.00;;;14.60
12918;BMP180;6526;54.312;13.092;2023-04-24T07:00:41;100487.00;;;14.70
12918;BMP180;6526;54.312;13.092;2023-04-24T07:03:07;100478.00;;;14.80
12918;BMP180;6526;54.312;13.092;2023-04-24T07:05:33;100480.00;;;14.80
12918;BMP180;6526;54.312;13.092;2023-04-24T07:08:04;100480.00;;;14.80
12918;BMP180;6526;54.312;13.092;2023-04-24T07:10:30;100487.00;;;14.90
12918;BMP180;6526;54.312;13.092;2023-04-24T07:12:56;100470.00;;;15.00
12918;BMP180;6526;54.312;13.092;2023-04-24T07:15:22;100471.00;;;15.00
12918;BMP180;6526;54.312;13.092;2023-04-24T07:17:49;100471.00;;;15.00
12918;BMP180;6526;54.312;13.092;2023-04-24T07:20:16;100465.00;;;15.10
12918;BMP180;6526;54.312;13.092;2023-04-24T07:22:42;100469.00;;;15.20
12918;BMP180;6526;54.312;13.092;2023-04-24T07:25:08;100467.00;;;15.20
12918;BMP180;6526;54.312;13.092;2023-04-24T07:27:35;100463.00;;;15.30
12918;BMP180;6526;54.312;13.092;2023-04-24T07:30:05;100467.00;;;15.30
12918;BMP180;6526;54.312;13.092;2023-04-24T07:32:32;100467.00;;;15.30
12918;BMP180;6526;54.312;13.092;2023-04-24T07:34:58;100476.00;;;15.30
12918;BMP180;6526;54.312;13.092;2023-04-24T07:37:24;100475.00;;;15.30
12918;BMP180;6526;54.312;13.092;2023-04-24T07:39:50;100473.00;;;15.30
12918;BMP180;6526;54.312;13.092;2023-04-24T07:42:16;100461.00;;;15.40
12918;BMP180;6526;54.312;13.092;2023-04-24T07:44:43;100480.00;;;15.50
12918;BMP180;6526;54.312;13.092;2023-04-24T07:47:09;100472.00;;;15.60
12918;BMP180;6526;54.312;13.092;2023-04-24T07:49:35;100463.00;;;15.60
12918;BMP180;6526;54.312;13.092;2023-04-24T07:52:01;100473.00;;;15.70
12918;BMP180;6526;54.312;13.092;2023-04-24T07:54:28;100471.00;;;15.70
12918;BMP180;6526;54.312;13.092;2023-04-24T07:56:54;100472.00;;;15.80
12918;BMP180;6526;54.312;13.092;2023-04-24T07:59:20;100476.00;;;15.90
12918;BMP180;6526;54.312;13.092;2023-04-24T08:01:46;100476.00;;;15.90
12918;BMP180;6526;54.312;13.092;2023-04-24T08:04:12;100477.00;;;16.00
12918;BMP180;6526;54.312;13.092;2023-04-24T08:06:38;100472.00;;;16.10
12918;BMP180;6526;54.312;13.092;2023-04-24T08:09:04;100475.00;;;16.50
12918;BMP180;6526;54.312;13.092;2023-04-24T08:11:31;100480.00;;;16.70
12918;BMP180;6526;54.312;13.092;2023-04-24T08:13:57;100473.00;;;17.10
12918;BMP180;6526;54.312;13.092;2023-04-24T08:16:23;100485.00;;;17.30
12918;BMP180;6526;54.312;13.092;2023-04-24T08:18:50;100468.00;;;17.30
12918;BMP180;6526;54.312;13.092;2023-04-24T08:21:16;100476.00;;;17.30
12918;BMP180;6526;54.312;13.092;2023-04-24T08:23:46;100479.00;;;17.10
12918;BMP180;6526;54.312;13.092;2023-04-24T08:26:13;100484.00;;;17.20
12918;BMP180;6526;54.312;13.092;2023-04-24T08:28:39;100480.00;;;17.20
12918;BMP180;6526;54.312;13.092;2023-04-24T08:31:05;100471.00;;;17.30
12918;BMP180;6526;54.312;13.092;2023-04-24T08:33:31;100491.00;;;17.20
12918;BMP180;6526;54.312;13.092;2023-04-24T08:36:04;100469.00;;;17.40
12918;BMP180;6526;54.312;13.092;2023-04-24T08:38:31;100485.00;;;17.50
12918;BMP180;6526;54.312;13.092;2023-04-24T08:40:59;100482.00;;;17.60
12918;BMP180;6526;54.312;13.092;2023-04-24T08:43:26;100486.00;;;17.70
12918;BMP180;6526;54.312;13.092;2023-04-24T08:45:52;100477.00;;;17.80
12918;BMP180;6526;54.312;13.092;2023-04-24T08:48:18;100479.00;;;18.00
12918;BMP180;6526;54.312;13.092;2023-04-24T08:50:46;100476.00;;;18.30
12918;BMP180;6526;54.312;13.092;2023-04-24T08:53:14;100470.00;;;18.30
12918;BMP180;6526;54.312;13.092;2023-04-24T08:55:41;100464.00;;;18.40
12918;BMP180;6526;54.312;13.092;2023-04-24T08:58:09;100469.00;;;18.40
12918;BMP180;6526;54.312;13.092;2023-04-24T09:00:36;100477.00;;;18.70
12918;BMP180;6526;54.312;13.092;2023-04-24T09:03:04;100466.00;;;18.90
12918;BMP180;6526;54.312;13.092;2023-04-24T09:05:31;100476.00;;;19.10
12918;BMP180;6526;54.312;13.092;2023-04-24T09:07:59;100479.00;;;19.10
12918;BMP180;6526;54.312;13.092;2023-04-24T09:10:27;100475.00;;;19.00
12918;BMP180;6526;54.312;13.092;2023-04-24T09:12:57;100484.00;;;19.00
12918;BMP180;6526;54.312;13.092;2023-04-24T09:15:25;100478.00;;;18.90
12918;BMP180;6526;54.312;13.092;2023-04-24T09:17:51;100473.00;;;19.20
12918;BMP180;6526;54.312;13.092;2023-04-24T09:20:17;100479.00;;;19.40
12918;BMP180;6526;54.312;13.092;2023-04-24T09:22:45;100478.00;;;19.40
12918;BMP180;6526;54.312;13.092;2023-04-24T09:25:11;100476.00;;;19.50
12918;BMP180;6526;54.312;13.092;2023-04-24T09:27:42;100478.00;;;19.70
12918;BMP180;6526;54.312;13.092;2023-04-24T09:30:10;100477.00;;;19.70
12918;BMP180;6526;54.312;13.092;2023-04-24T09:32:36;100487.00;;;19.70
12918;BMP180;6526;54.312;13.092;2023-04-24T09:35:20;100482.00;;;19.70
12918;BMP180;6526;54.312;13.092;2023-04-24T09:37:47;100476.00;;;19.70
12918;BMP180;6526;54.312;13.092;2023-04-24T09:40:19;100480.00;;;19.70
12918;BMP180;6526;54.312;13.092;2023-04-24T09:42:51;100478.00;;;19.80
12918;BMP180;6526;54.312;13.092;2023-04-24T09:45:17;100472.00;;;19.80
12918;BMP180;6526;54.312;13.092;2023-04-24T09:47:43;100468.00;;;20.10
12918;BMP180;6526;54.312;13.092;2023-04-24T09:50:15;100476.00;;;20.20
12918;BMP180;6526;54.312;13.092;2023-04-24T09:52:58;100475.00;;;20.30
12918;BMP180;6526;54.312;13.092;2023-04-24T09:55:25;100476.00;;;20.40
12918;BMP180;6526;54.312;13.092;2023-04-24T09:57:58;100478.00;;;20.40
12918;BMP180;6526;54.312;13.092;2023-04-24T10:00:30;100480.00;;;20.20
12918;BMP180;6526;54.312;13.092;2023-04-24T10:02:58;100484.00;;;20.00
12918;BMP180;6526;54.312;13.092;2023-04-24T10:05:32;100473.00;;;19.80
12918;BMP180;6526;54.312;13.092;2023-04-24T10:08:09;100477.00;;;19.50
12918;BMP180;6526;54.312;13.092;2023-04-24T10:10:40;100476.00;;;19.50
12918;BMP180;6526;54.312;13.092;2023-04-24T10:13:11;100482.00;;;19.40
12918;BMP180;6526;54.312;13.092;2023-04-24T10:15:38;100493.00;;;19.50
12918;BMP180;6526;54.312;13.092;2023-04-24T10:18:06;100480.00;;;19.60
12918;BMP180;6526;54.312;13.092;2023-04-24T10:20:35;100492.00;;;19.80
12918;BMP180;6526;54.312;13.092;2023-04-24T10:23:02;100485.00;;;20.00
12918;BMP180;6526;54.312;13.092;2023-04-24T10:25:33;100485.00;;;20.20
12918;BMP180;6526;54.312;13.092;2023-04-24T10:28:01;100488.00;;;20.50
12918;BMP180;6526;54.312;13.092;2023-04-24T10:30:29;100480.00;;;20.60
12918;BMP180;6526;54.312;13.092;2023-04-24T10:32:55;100485.00;;;20.60
12918;BMP180;6526;54.312;13.092;2023-04-24T10:35:22;100482.00;;;20.20
12918;BMP180;6526;54.312;13.092;2023-04-24T10:37:56;100483.00;;;20.10
12918;BMP180;6526;54.312;13.092;2023-04-24T10:40:33;100488.00;;;20.20
12918;BMP180;6526;54.312;13.092;2023-04-24T10:43:04;100489.00;;;20.10
12918;BMP180;6526;54.312;13.092;2023-04-24T10:45:32;100485.00;;;20.10
12918;BMP180;6526;54.312;13.092;2023-04-24T10:48:06;100475.00;;;20.20
12918;BMP180;6526;54.312;13.092;2023-04-24T10:50:52;100489.00;;;20.20
12918;BMP180;6526;54.312;13.092;2023-04-24T10:53:22;100482.00;;;20.30
12918;BMP180;6526;54.312;13.092;2023-04-24T10:55:50;100483.00;;;20.30
12918;BMP180;6526;54.312;13.092;2023-04-24T10:58:21;100482.00;;;20.40
12918;BMP180;6526;54.312;13.092;2023-04-24T11:00:57;100490.00;;;20.40
12918;BMP180;6526;54.312;13.092;2023-04-24T11:03:28;100491.00;;;20.80
12918;BMP180;6526;54.312;13.092;2023-04-24T11:06:00;100493.00;;;20.80
12918;BMP180;6526;54.312;13.092;2023-04-24T11:08:32;100494.00;;;21.00
12918;BMP180;6526;54.312;13.092;2023-04-24T11:19:07;100501.00;;;20.60
12918;BMP180;6526;54.312;13.092;2023-04-24T11:21:43;100493.00;;;20.60
12918;BMP180;6526;54.312;13.092;2023-04-24T11:27:06;100507.00;;;20.50
12918;BMP180;6526;54.312;13.092;2023-04-24T11:30:04;100502.00;;;20.60
12918;BMP180;6526;54.312;13.092;2023-04-24T11:37:35;100501.00;;;20.40
12918;BMP180;6526;54.312;13.092;2023-04-24T11:40:02;100512.00;;;20.10
12918;BMP180;6526;54.312;13.092;2023-04-24T11:42:41;100504.00;;;20.10
12918;BMP180;6526;54.312;13.092;2023-04-24T11:45:28;100501.00;;;20.10
12918;BMP180;6526;54.312;13.092;2023-04-24T11:47:54;100490.00;;;20.40
12918;BMP180;6526;54.312;13.092;2023-04-24T11:50:23;100500.00;;;20.70
12918;BMP180;6526;54.312;13.092;2023-04-24T11:52:50;100490.00;;;21.00
12918;BMP180;6526;54.312;13.092;2023-04-24T11:57:47;100481.00;;;21.30
12918;BMP180;6526;54.312;13.092;2023-04-24T12:00:21;100494.00;;;21.30
12918;BMP180;6526;54.312;13.092;2023-04-24T12:02:48;100498.00;;;21.10
12918;BMP180;6526;54.312;13.092;2023-04-24T12:05:22;100497.00;;;20.90
12918;BMP180;6526;54.312;13.092;2023-04-24T12:07:49;100487.00;;;20.90
12918;BMP180;6526;54.312;13.092;2023-04-24T12:10:19;100489.00;;;21.00
12918;BMP180;6526;54.312;13.092;2023-04-24T12:12:46;100486.00;;;21.20
12918;BMP180;6526;54.312;13.092;2023-04-24T12:15:12;100481.00;;;21.30
12918;BMP180;6526;54.312;13.092;2023-04-24T12:17:41;100477.00;;;21.50
12918;BMP180;6526;54.312;13.092;2023-04-24T12:20:09;100475.00;;;21.40
12918;BMP180;6526;54.312;13.092;2023-04-24T12:22:50;100488.00;;;21.60
12918;BMP180;6526;54.312;13.092;2023-04-24T12:25:17;100471.00;;;21.50
12918;BMP180;6526;54.312;13.092;2023-04-24T12:27:44;100469.00;;;21.30
12918;BMP180;6526;54.312;13.092;2023-04-24T12:30:13;100470.00;;;21.00
12918;BMP180;6526;54.312;13.092;2023-04-24T12:32:48;100465.00;;;20.70
12918;BMP180;6526;54.312;13.092;2023-04-24T12:35:19;100463.00;;;20.70
12918;BMP180;6526;54.312;13.092;2023-04-24T12:37:49;100459.00;;;20.60
12918;BMP180;6526;54.312;13.092;2023-04-24T12:40:16;100444.00;;;20.60
12918;BMP180;6526;54.312;13.092;2023-04-24T12:42:49;100438.00;;;20.80
12918;BMP180;6526;54.312;13.092;2023-04-24T12:45:17;100437.00;;;21.00
12918;BMP180;6526;54.312;13.092;2023-04-24T12:47:44;100448.00;;;21.10
12918;BMP180;6526;54.312;13.092;2023-04-24T12:50:12;100453.00;;;21.20
12918;BMP180;6526;54.312;13.092;2023-04-24T12:52:39;100453.00;;;21.10
12918;BMP180;6526;54.312;13.092;2023-04-24T12:55:06;100454.00;;;20.90
12918;BMP180;6526;54.312;13.092;2023-04-24T12:57:36;100450.00;;;20.90
12918;BMP180;6526;54.312;13.092;2023-04-24T13:00:03;100452.00;;;20.60
12918;BMP180;6526;54.312;13.092;2023-04-24T13:02:30;100460.00;;;20.50
12918;BMP180;6526;54.312;13.092;2023-04-24T13:04:58;100458.00;;;20.40
12918;BMP180;6526;54.312;13.092;2023-04-24T13:07:24;100461.00;;;20.40
12918;BMP180;6526;54.312;13.092;2023-04-24T13:09:51;100461.00;;;20.40
12918;BMP180;6526;54.312;13.092;2023-04-24T13:12:17;100446.00;;;20.30
12918;BMP180;6526;54.312;13.092;2023-04-24T13:14:44;100442.00;;;20.20
12918;BMP180;6526;54.312;13.092;2023-04-24T13:17:10;100426.00;;;20.20
12918;BMP180;6526;54.312;13.092;2023-04-24T13:19:38;100428.00;;;20.10
12918;BMP180;6526;54.312;13.092;2023-04-24T13:22:05;100431.00;;;20.00
12918;BMP180;6526;54.312;13.092;2023-04-24T13:24:31;100423.00;;;19.90
12918;BMP180;6526;54.312;13.092;2023-04-24T13:26:58;100429.00;;;19.90
12918;BMP180;6526;54.312;13.092;2023-04-24T13:29:24;100437.00;;;19.80
12918;BMP180;6526;54.312;13.092;2023-04-24T13:31:54;100439.00;;;19.70
12918;BMP180;6526;54.312;13.092;2023-04-24T13:34:21;100436.00;;;19.60
12918;BMP180;6526;54.312;13.092;2023-04-24T13:36:47;100438.00;;;19.50
12918;BMP180;6526;54.312;13.092;2023-04-24T13:39:13;100418.00;;;19.50
12918;BMP180;6526;54.312;13.092;2023-04-24T13:41:40;100433.00;;;19.40
12918;BMP180;6526;54.312;13.092;2023-04-24T13:44:06;100429.00;;;19.40
12918;BMP180;6526;54.312;13.092;2023-04-24T13:46:32;100422.00;;;19.40
12918;BMP180;6526;54.312;13.092;2023-04-24T13:48:58;100423.00;;;19.30
12918;BMP180;6526;54.312;13.092;2023-04-24T13:51:26;100414.00;;;19.20
12918;BMP180;6526;54.312;13.092;2023-04-24T13:53:55;100425.00;;;19.10
12918;BMP180;6526;54.312;13.092;2023-04-24T13:56:22;100437.00;;;19.00
12918;BMP180;6526;54.312;13.092;2023-04-24T13:58:48;100447.00;;;18.90
12918;BMP180;6526;54.312;13.092;2023-04-24T14:01:15;100452.00;;;18.70
12918;BMP180;6526;54.312;13.092;2023-04-24T14:03:42;100452.00;;;18.40
12918;BMP180;6526;54.312;13.092;2023-04-24T14:06:09;100457.00;;;18.20
12918;BMP180;6526;54.312;13.092;2023-04-24T14:08:35;100469.00;;;17.90
12918;BMP180;6526;54.312;13.092;2023-04-24T14:11:01;100476.00;;;17.70
12918;BMP180;6526;54.312;13.092;2023-04-24T14:13:28;100472.00;;;17.40
12918;BMP180;6526;54.312;13.092;2023-04-24T14:15:54;100470.00;;;17.20